createdAt,value
2016-03-21T00:00:00.489Z,1000.34
2016-03-21T00:01:00.506Z,1000.3
2016-03-21T00:02:00.525Z,1000.33
2016-03-21T00:03:00.544Z,1000.34
2016-03-21T00:04:00.547Z,1000.35
2016-03-21T00:05:00.564Z,1000.37
2016-03-21T00:06:00.582Z,1000.36
2016-03-21T00:07:00.602Z,1000.35
2016-03-21T00:08:00.604Z,1000.31
2016-03-21T00:09:00.622Z,1000.33
2016-03-21T00:10:00.641Z,1000.32
2016-03-21T00:11:00.674Z,1000.36
2016-03-21T00:12:00.661Z,1000.33
2016-03-21T00:13:00.680Z,1000.32
2016-03-21T00:14:00.698Z,1000.34
2016-03-21T00:15:00.701Z,1000.35
2016-03-21T00:16:00.719Z,1000.38
2016-03-21T00:17:00.737Z,1000.34
2016-03-21T00:18:00.740Z,1000.32
2016-03-21T00:19:00.759Z,1000.35
2016-03-21T00:20:00.777Z,1000.33
2016-03-21T00:21:00.780Z,1000.38
2016-03-21T00:22:00.798Z,1000.41
2016-03-21T00:23:00.816Z,1000.38
2016-03-21T00:24:00.834Z,1000.35
2016-03-21T00:25:00.853Z,1000.36
2016-03-21T00:26:00.855Z,1000.34
2016-03-21T00:27:00.874Z,1000.36
2016-03-21T00:28:00.892Z,1000.34
2016-03-21T00:29:00.911Z,1000.35
2016-03-21T00:30:00.913Z,1000.38
2016-03-21T00:31:00.931Z,1000.31
2016-03-21T00:32:00.950Z,1000.31
2016-03-21T00:33:00.953Z,1000.32
2016-03-21T00:34:00.970Z,1000.3
2016-03-21T00:35:00.989Z,1000.27
2016-03-21T00:36:00.991Z,1000.28
2016-03-21T00:37:01.010Z,1000.31
2016-03-21T00:38:01.028Z,1000.26
2016-03-21T00:39:01.063Z,1000.26
2016-03-21T00:40:01.050Z,1000.23
2016-03-21T00:41:01.068Z,1000.24
2016-03-21T00:42:01.086Z,1000.23
2016-03-21T00:43:01.104Z,1000.23
2016-03-21T00:44:01.122Z,1000.23
2016-03-21T00:45:01.141Z,1000.23
2016-03-21T00:46:01.143Z,1000.21
2016-03-21T00:47:01.162Z,1000.18
2016-03-21T00:48:01.180Z,1000.2
2016-03-21T00:49:01.183Z,1000.17
2016-03-21T00:50:01.201Z,1000.18
2016-03-21T00:51:01.220Z,1000.16
2016-03-21T00:52:01.222Z,1000.17
2016-03-21T00:53:01.240Z,1000.17
2016-03-21T00:54:01.259Z,1000.16
2016-03-21T00:55:01.277Z,1000.13
2016-03-21T00:56:01.296Z,1000.08
2016-03-21T00:57:01.298Z,1000.11
2016-03-21T00:58:01.317Z,1000.11
2016-03-21T00:59:01.335Z,1000.1
2016-03-21T01:00:01.337Z,1000.07
2016-03-21T01:01:01.356Z,1000.1
2016-03-21T01:02:01.374Z,1000.09
2016-03-21T01:03:01.392Z,1000.07
2016-03-21T01:04:01.395Z,1000.06
2016-03-21T01:05:01.414Z,1000.06
2016-03-21T01:06:01.431Z,1000.1
2016-03-21T01:07:01.434Z,1000.08
2016-03-21T01:08:01.469Z,1000.06
2016-03-21T01:09:01.471Z,1000.12
2016-03-21T01:10:01.489Z,1000.11
2016-03-21T01:11:01.492Z,1000.06
2016-03-21T01:12:01.510Z,1000.08
2016-03-21T01:13:01.529Z,1000.1
2016-03-21T01:14:01.532Z,1000.1
2016-03-21T01:15:01.549Z,1000.08
2016-03-21T01:16:01.568Z,1000.13
2016-03-21T01:17:01.586Z,1000.12
2016-03-21T01:18:01.605Z,1000.11
2016-03-21T01:19:01.607Z,1000.14
2016-03-21T01:20:01.626Z,1000.14
2016-03-21T01:21:01.644Z,1000.1
2016-03-21T01:22:01.663Z,1000.12
2016-03-21T01:23:01.665Z,1000.12
2016-03-21T01:24:01.714Z,1000.11
2016-03-21T01:25:01.702Z,1000.11
2016-03-21T01:26:01.720Z,1000.1
2016-03-21T01:27:01.738Z,1000.07
2016-03-21T01:28:01.741Z,1000.09
2016-03-21T01:29:01.759Z,1000.1
2016-03-21T01:30:01.778Z,1000.05
2016-03-21T01:31:01.796Z,1000.09
2016-03-21T01:32:01.799Z,1000.1
2016-03-21T01:33:01.817Z,1000.09
2016-03-21T01:34:01.836Z,1000.09
2016-03-21T01:35:01.839Z,1000.08
2016-03-21T01:36:01.856Z,1000.08
2016-03-21T01:37:01.875Z,1000.07
2016-03-21T01:38:01.878Z,1000.07
2016-03-21T01:39:01.895Z,1000.08
2016-03-21T01:40:01.914Z,1000.08
2016-03-21T01:41:01.917Z,1000.02
2016-03-21T01:42:01.935Z,1000.08
2016-03-21T01:43:01.953Z,1000.05
2016-03-21T01:44:01.972Z,1000.05
2016-03-21T01:45:01.990Z,1000.04
2016-03-21T01:46:01.993Z,1000
2016-03-21T01:47:02.011Z,1000.02
2016-03-21T01:48:02.029Z,1000.01
2016-03-21T01:49:02.032Z,999.98
2016-03-21T01:50:02.050Z,999.97
2016-03-21T01:51:02.069Z,999.98
2016-03-21T01:52:02.072Z,1000.02
2016-03-21T01:53:02.106Z,999.97
2016-03-21T01:54:02.108Z,999.95
2016-03-21T01:55:02.127Z,999.99
2016-03-21T01:56:02.146Z,999.95
2016-03-21T01:57:02.148Z,999.97
2016-03-21T01:58:02.166Z,999.98
2016-03-21T01:59:02.185Z,999.92
2016-03-21T02:00:02.202Z,999.94
2016-03-21T02:01:02.204Z,999.92
2016-03-21T02:02:02.224Z,999.93
2016-03-21T02:03:02.242Z,999.95
2016-03-21T02:04:02.245Z,999.95
2016-03-21T02:05:02.262Z,999.94
2016-03-21T02:06:02.265Z,999.95
2016-03-21T02:07:02.300Z,999.94
2016-03-21T02:08:02.302Z,999.92
2016-03-21T02:09:02.321Z,999.94
2016-03-21T02:10:02.339Z,999.97
2016-03-21T02:11:02.356Z,999.97
2016-03-21T02:12:02.359Z,999.94
2016-03-21T02:13:02.378Z,999.91
2016-03-21T02:14:02.397Z,999.95
2016-03-21T02:15:02.415Z,999.95
2016-03-21T02:16:02.418Z,999.93
2016-03-21T02:17:02.436Z,999.93
2016-03-21T02:18:02.454Z,999.96
2016-03-21T02:19:02.473Z,999.94
2016-03-21T02:20:02.491Z,999.94
2016-03-21T02:21:02.494Z,999.97
2016-03-21T02:22:02.511Z,1000.01
2016-03-21T02:23:02.514Z,1000
2016-03-21T02:24:02.533Z,1000.01
2016-03-21T02:25:02.551Z,1000.02
2016-03-21T02:26:02.554Z,1000.02
2016-03-21T02:27:02.572Z,1000.02
2016-03-21T02:28:02.590Z,1000.01
2016-03-21T02:29:02.609Z,1000.05
2016-03-21T02:30:02.611Z,1000.05
2016-03-21T02:31:02.630Z,1000.09
2016-03-21T02:32:02.648Z,1000.05
2016-03-21T02:33:02.665Z,1000.1
2016-03-21T02:34:02.668Z,1000.1
2016-03-21T02:35:02.687Z,1000.11
2016-03-21T02:36:02.706Z,1000.07
2016-03-21T02:37:02.724Z,1000.11
2016-03-21T02:38:02.727Z,1000.08
2016-03-21T02:39:02.761Z,1000.09
2016-03-21T02:40:02.763Z,1000.06
2016-03-21T02:41:02.782Z,1000.06
2016-03-21T02:42:02.784Z,1000.07
2016-03-21T02:43:02.803Z,1000.06
2016-03-21T02:44:02.820Z,1000.07
2016-03-21T02:45:02.839Z,1000.07
2016-03-21T02:46:02.842Z,1000.05
2016-03-21T02:47:02.860Z,1000.06
2016-03-21T02:48:02.879Z,1000.04
2016-03-21T02:49:02.881Z,1000.02
2016-03-21T02:50:02.931Z,1000.04
2016-03-21T02:51:02.918Z,1000.01
2016-03-21T02:52:02.921Z,999.98
2016-03-21T02:53:02.939Z,999.98
2016-03-21T02:54:02.957Z,999.97
2016-03-21T02:55:02.975Z,1000
2016-03-21T02:56:02.977Z,999.99
2016-03-21T02:57:02.997Z,999.98
2016-03-21T02:58:03.015Z,999.98
2016-03-21T02:59:03.033Z,1000.03
2016-03-21T03:00:03.036Z,1000
2016-03-21T03:01:03.054Z,1000
2016-03-21T03:02:03.073Z,999.97
2016-03-21T03:03:03.076Z,999.97
2016-03-21T03:04:03.094Z,999.97
2016-03-21T03:05:03.112Z,999.98
2016-03-21T03:06:03.129Z,999.97
2016-03-21T03:07:03.138Z,999.98
2016-03-21T03:08:03.150Z,999.96
2016-03-21T03:09:03.168Z,999.94
2016-03-21T03:10:03.172Z,999.93
2016-03-21T03:11:03.189Z,999.97
2016-03-21T03:12:03.208Z,999.95
2016-03-21T03:13:03.210Z,999.93
2016-03-21T03:14:03.229Z,999.96
2016-03-21T03:15:03.247Z,999.93
2016-03-21T03:16:03.250Z,999.94
2016-03-21T03:17:03.268Z,999.95
2016-03-21T03:18:03.285Z,999.92
2016-03-21T03:19:03.305Z,999.89
2016-03-21T03:20:03.307Z,999.89
2016-03-21T03:21:03.326Z,999.89
2016-03-21T03:22:03.344Z,999.92
2016-03-21T03:23:03.362Z,999.89
2016-03-21T03:24:03.381Z,999.93
2016-03-21T03:25:03.383Z,999.9
2016-03-21T03:26:03.402Z,999.92
2016-03-21T03:27:03.420Z,999.9
2016-03-21T03:28:03.437Z,999.94
2016-03-21T03:29:03.440Z,999.95
2016-03-21T03:30:03.459Z,999.91
2016-03-21T03:31:03.478Z,999.89
2016-03-21T03:32:03.496Z,999.94
2016-03-21T03:33:03.499Z,999.93
2016-03-21T03:34:03.517Z,999.93
2016-03-21T03:35:03.520Z,999.95
2016-03-21T03:36:03.538Z,999.96
2016-03-21T03:37:03.556Z,999.96
2016-03-21T03:38:03.559Z,999.94
2016-03-21T03:39:03.577Z,999.97
2016-03-21T03:40:03.595Z,999.96
2016-03-21T03:41:03.597Z,999.94
2016-03-21T03:42:03.617Z,999.96
2016-03-21T03:43:03.635Z,999.92
2016-03-21T03:44:03.638Z,999.9
2016-03-21T03:45:03.656Z,999.95
2016-03-21T03:46:03.674Z,999.93
2016-03-21T03:47:03.693Z,999.94
2016-03-21T03:48:03.711Z,999.97
2016-03-21T03:49:03.714Z,999.95
2016-03-21T03:50:03.732Z,999.97
2016-03-21T03:51:03.749Z,999.95
2016-03-21T03:52:03.768Z,999.96
2016-03-21T03:53:03.771Z,999.98
2016-03-21T03:54:03.789Z,999.97
2016-03-21T03:55:03.793Z,999.99
2016-03-21T03:56:03.810Z,999.99
2016-03-21T03:57:03.829Z,999.93
2016-03-21T03:58:03.847Z,999.98
2016-03-21T03:59:03.865Z,999.94
2016-03-21T04:00:03.868Z,1000.01
2016-03-21T04:01:03.886Z,999.98
2016-03-21T04:02:03.904Z,1000
2016-03-21T04:03:03.923Z,1000
2016-03-21T04:04:03.926Z,1000.04
2016-03-21T04:05:03.944Z,1000.05
2016-03-21T04:06:03.947Z,1000.03
2016-03-21T04:07:03.965Z,1000.02
2016-03-21T04:08:03.983Z,1000
2016-03-21T04:09:04.002Z,1000.03
2016-03-21T04:10:04.004Z,1000.01
2016-03-21T04:11:04.023Z,999.99
2016-03-21T04:12:04.041Z,999.99
2016-03-21T04:13:04.044Z,1000.01
2016-03-21T04:14:04.061Z,1000.03
2016-03-21T04:15:04.080Z,1000.02
2016-03-21T04:16:04.099Z,1000.03
2016-03-21T04:17:04.101Z,1000.05
2016-03-21T04:18:04.120Z,1000.06
2016-03-21T04:19:04.138Z,1000.06
2016-03-21T04:20:04.156Z,1000.06
2016-03-21T04:21:04.159Z,1000.07
2016-03-21T04:22:04.177Z,1000.06
2016-03-21T04:23:04.196Z,1000.08
2016-03-21T04:24:04.198Z,1000.12
2016-03-21T04:25:04.216Z,1000.14
2016-03-21T04:26:04.235Z,1000.13
2016-03-21T04:27:04.253Z,1000.13
2016-03-21T04:28:04.256Z,1000.17
2016-03-21T04:29:04.274Z,1000.12
2016-03-21T04:30:04.292Z,1000.14
2016-03-21T04:31:04.295Z,1000.16
2016-03-21T04:32:04.313Z,1000.19
2016-03-21T04:33:04.332Z,1000.18
2016-03-21T04:34:04.334Z,1000.18
2016-03-21T04:35:04.353Z,1000.25
2016-03-21T04:36:04.370Z,1000.21
2016-03-21T04:37:04.389Z,1000.21
2016-03-21T04:38:04.392Z,1000.18
2016-03-21T04:39:04.410Z,1000.21
2016-03-21T04:40:04.429Z,1000.2
2016-03-21T04:41:04.447Z,1000.19
2016-03-21T04:42:04.450Z,1000.18
2016-03-21T04:43:04.468Z,1000.17
2016-03-21T04:44:04.486Z,1000.14
2016-03-21T04:45:04.505Z,1000.16
2016-03-21T04:46:04.507Z,1000.14
2016-03-21T04:47:04.525Z,1000.07
2016-03-21T04:48:04.528Z,1000.09
2016-03-21T04:49:04.547Z,1000.11
2016-03-21T04:50:04.565Z,1000.1
2016-03-21T04:51:04.583Z,1000.14
2016-03-21T04:52:04.602Z,1000.13
2016-03-21T04:53:04.604Z,1000.13
2016-03-21T04:54:04.623Z,1000.13
2016-03-21T04:55:04.625Z,1000.15
2016-03-21T04:56:04.659Z,1000.2
2016-03-21T04:57:04.662Z,1000.18
2016-03-21T04:58:04.664Z,1000.17
2016-03-21T04:59:04.682Z,1000.18
2016-03-21T05:00:04.701Z,1000.21
2016-03-21T05:01:04.720Z,1000.19
2016-03-21T05:02:04.737Z,1000.19
2016-03-21T05:03:04.741Z,1000.22
2016-03-21T05:04:04.759Z,1000.19
2016-03-21T05:05:04.777Z,1000.21
2016-03-21T05:06:04.796Z,1000.18
2016-03-21T05:07:04.814Z,1000.17
2016-03-21T05:08:04.817Z,1000.2
2016-03-21T05:09:04.834Z,1000.24
2016-03-21T05:10:04.837Z,1000.21
2016-03-21T05:11:04.856Z,1000.2
2016-03-21T05:12:04.859Z,1000.2
2016-03-21T05:13:04.892Z,1000.25
2016-03-21T05:14:04.895Z,1000.25
2016-03-21T05:15:04.913Z,1000.26
2016-03-21T05:16:04.932Z,1000.29
2016-03-21T05:17:04.934Z,1000.32
2016-03-21T05:18:04.953Z,1000.3
2016-03-21T05:19:04.971Z,1000.34
2016-03-21T05:20:04.973Z,1000.35
2016-03-21T05:21:04.991Z,1000.33
2016-03-21T05:22:05.010Z,1000.33
2016-03-21T05:23:05.013Z,1000.27
2016-03-21T05:24:05.031Z,1000.19
2016-03-21T05:25:05.050Z,1000.16
2016-03-21T05:26:05.068Z,1000.12
2016-03-21T05:27:05.070Z,1000.13
2016-03-21T05:28:05.089Z,1000.12
2016-03-21T05:29:05.107Z,1000.13
2016-03-21T05:30:05.110Z,1000.14
2016-03-21T05:31:05.128Z,1000.17
2016-03-21T05:32:05.146Z,1000.2
2016-03-21T05:33:05.181Z,1000.2
2016-03-21T05:34:05.168Z,1000.24
2016-03-21T05:35:05.186Z,1000.26
2016-03-21T05:36:05.204Z,1000.31
2016-03-21T05:37:05.207Z,1000.37
2016-03-21T05:38:05.225Z,1000.35
2016-03-21T05:39:05.244Z,1000.38
2016-03-21T05:40:05.262Z,1000.36
2016-03-21T05:41:05.280Z,1000.41
2016-03-21T05:42:05.283Z,1000.38
2016-03-21T05:43:05.300Z,1000.42
2016-03-21T05:44:05.304Z,1000.39
2016-03-21T05:45:05.322Z,1000.38
2016-03-21T05:46:05.341Z,1000.41
2016-03-21T05:47:05.343Z,1000.4
2016-03-21T05:48:05.362Z,1000.41
2016-03-21T05:49:05.380Z,1000.42
2016-03-21T05:50:05.398Z,1000.41
2016-03-21T05:51:05.417Z,1000.39
2016-03-21T05:52:05.419Z,1000.42
2016-03-21T05:53:05.438Z,1000.4
2016-03-21T05:54:05.455Z,1000.43
2016-03-21T05:55:05.458Z,1000.49
2016-03-21T05:56:05.477Z,1000.51
2016-03-21T05:57:05.495Z,1000.47
2016-03-21T05:58:05.513Z,1000.5
2016-03-21T05:59:05.516Z,1000.49
2016-03-21T06:00:05.534Z,1000.55
2016-03-21T06:01:05.537Z,1000.51
2016-03-21T06:02:05.555Z,1000.52
2016-03-21T06:03:05.574Z,1000.5
2016-03-21T06:04:05.592Z,1000.49
2016-03-21T06:05:05.595Z,1000.5
2016-03-21T06:06:05.612Z,1000.49
2016-03-21T06:07:05.615Z,1000.45
2016-03-21T06:08:05.650Z,1000.48
2016-03-21T06:09:05.652Z,1000.48
2016-03-21T06:10:05.671Z,1000.49
2016-03-21T06:11:05.689Z,1000.51
2016-03-21T06:12:05.692Z,1000.52
2016-03-21T06:13:05.710Z,1000.52
2016-03-21T06:14:05.728Z,1000.5
2016-03-21T06:15:05.747Z,1000.5
2016-03-21T06:16:05.749Z,1000.49
2016-03-21T06:17:05.767Z,1000.55
2016-03-21T06:18:05.786Z,1000.53
2016-03-21T06:19:05.804Z,1000.53
2016-03-21T06:20:05.807Z,1000.53
2016-03-21T06:21:05.825Z,1000.52
2016-03-21T06:22:05.844Z,1000.48
2016-03-21T06:23:05.846Z,1000.51
2016-03-21T06:24:05.865Z,1000.52
2016-03-21T06:25:05.883Z,1000.51
2016-03-21T06:26:05.886Z,1000.5
2016-03-21T06:27:05.904Z,1000.5
2016-03-21T06:28:05.921Z,1000.56
2016-03-21T06:29:05.941Z,1000.54
2016-03-21T06:30:05.943Z,1000.53
2016-03-21T06:31:05.962Z,1000.55
2016-03-21T06:32:05.980Z,1000.55
2016-03-21T06:33:05.982Z,1000.59
2016-03-21T06:34:06.001Z,1000.6
2016-03-21T06:35:06.019Z,1000.59
2016-03-21T06:36:06.022Z,1000.64
2016-03-21T06:37:06.040Z,1000.6
2016-03-21T06:38:06.059Z,1000.61
2016-03-21T06:39:06.076Z,1000.61
2016-03-21T06:40:06.079Z,1000.63
2016-03-21T06:41:06.098Z,1000.64
2016-03-21T06:42:06.116Z,1000.64
2016-03-21T06:43:06.134Z,1000.65
2016-03-21T06:44:06.153Z,1000.66
2016-03-21T06:45:06.171Z,1000.65
2016-03-21T06:46:06.174Z,1000.68
2016-03-21T06:47:06.192Z,1000.7
2016-03-21T06:48:06.195Z,1000.72
2016-03-21T06:49:06.213Z,1000.68
2016-03-21T06:50:06.231Z,1000.66
2016-03-21T06:51:06.234Z,1000.67
2016-03-21T06:52:06.253Z,1000.63
2016-03-21T06:53:06.271Z,1000.65
2016-03-21T06:54:06.289Z,1000.68
2016-03-21T06:55:06.292Z,1000.68
2016-03-21T06:56:06.310Z,1000.7
2016-03-21T06:57:06.328Z,1000.68
2016-03-21T06:58:06.347Z,1000.6
2016-03-21T06:59:06.349Z,1000.64
2016-03-21T07:00:06.368Z,1000.66
2016-03-21T07:01:06.385Z,1000.64
2016-03-21T07:02:06.388Z,1000.69
2016-03-21T07:03:06.407Z,1000.7
2016-03-21T07:04:06.425Z,1000.67
2016-03-21T07:05:06.444Z,1000.68
2016-03-21T07:06:06.462Z,1000.66
2016-03-21T07:07:06.472Z,1000.66
2016-03-21T07:08:06.475Z,1000.64
2016-03-21T07:09:06.509Z,1000.68
2016-03-21T07:10:06.512Z,1000.67
2016-03-21T07:11:06.514Z,1000.62
2016-03-21T07:12:06.548Z,1000.67
2016-03-21T07:13:06.551Z,1000.63
2016-03-21T07:14:06.569Z,1000.62
2016-03-21T07:15:06.587Z,1000.65
2016-03-21T07:16:06.589Z,1000.62
2016-03-21T07:17:06.609Z,1000.57
2016-03-21T07:18:06.627Z,1000.56
2016-03-21T07:19:06.630Z,1000.62
2016-03-21T07:20:06.648Z,1000.6
2016-03-21T07:21:06.666Z,1000.58
2016-03-21T07:22:06.685Z,1000.52
2016-03-21T07:23:06.687Z,1000.51
2016-03-21T07:24:06.706Z,1000.55
2016-03-21T07:25:06.724Z,1000.53
2016-03-21T07:26:06.741Z,1000.52
2016-03-21T07:27:06.744Z,1000.54
2016-03-21T07:28:06.763Z,1000.53
2016-03-21T07:29:06.782Z,1000.54
2016-03-21T07:30:06.784Z,1000.52
2016-03-21T07:31:06.803Z,1000.54
2016-03-21T07:32:06.821Z,1000.63
2016-03-21T07:33:06.839Z,1000.58
2016-03-21T07:34:06.857Z,1000.66
2016-03-21T07:35:06.860Z,1000.56
2016-03-21T07:36:06.878Z,1000.58
2016-03-21T07:37:06.896Z,1000.59
2016-03-21T07:38:06.962Z,1000.63
2016-03-21T07:39:06.965Z,1000.66
2016-03-21T07:40:06.951Z,1000.73
2016-03-21T07:41:06.939Z,1000.71
2016-03-21T07:42:06.973Z,1000.73
2016-03-21T07:43:06.975Z,1000.83
2016-03-21T07:44:06.994Z,1000.82
2016-03-21T07:45:06.989Z,1000.75
2016-03-21T07:46:06.993Z,1000.83
2016-03-21T07:47:06.997Z,1000.84
2016-03-21T07:48:07.002Z,1000.91
2016-03-21T07:49:06.990Z,1000.87
2016-03-21T07:50:07.001Z,1000.91
2016-03-21T07:51:07.014Z,1000.83
2016-03-21T07:52:07.026Z,1000.85
2016-03-21T07:53:07.025Z,1000.82
2016-03-21T07:54:07.038Z,1000.84
2016-03-21T07:55:07.053Z,1000.95
2016-03-21T07:56:07.069Z,1000.95
2016-03-21T07:57:07.070Z,1000.91
2016-03-21T07:58:07.086Z,1001
2016-03-21T07:59:07.102Z,1001.01
2016-03-21T08:00:07.104Z,1001.01
2016-03-21T08:01:07.122Z,1001.04
2016-03-21T08:02:07.140Z,1000.96
2016-03-21T08:03:07.157Z,1000.97
2016-03-21T08:04:07.175Z,1001
2016-03-21T08:05:07.177Z,1000.97
2016-03-21T08:06:07.195Z,1000.92
2016-03-21T08:07:07.214Z,1001.04
2016-03-21T08:08:07.232Z,1000.98
2016-03-21T08:09:07.235Z,1000.94
2016-03-21T08:10:07.252Z,1000.94
2016-03-21T08:11:07.271Z,1000.89
2016-03-21T08:12:07.290Z,1000.92
2016-03-21T08:13:07.292Z,1000.97
2016-03-21T08:14:07.311Z,1000.96
2016-03-21T08:15:07.329Z,1000.88
2016-03-21T08:16:07.347Z,1000.9
2016-03-21T08:17:07.350Z,1000.97
2016-03-21T08:18:07.368Z,1001.01
2016-03-21T08:19:07.387Z,1001.09
2016-03-21T08:20:07.389Z,1001
2016-03-21T08:21:07.407Z,1001.05
2016-03-21T08:22:07.426Z,1001.02
2016-03-21T08:23:07.444Z,1000.99
2016-03-21T08:24:07.447Z,1001.03
2016-03-21T08:25:07.481Z,1000.92
2016-03-21T08:26:07.484Z,1001.05
2016-03-21T08:27:07.502Z,1000.97
2016-03-21T08:28:07.520Z,1001.01
2016-03-21T08:29:07.522Z,1000.95
2016-03-21T08:30:07.541Z,1001.02
2016-03-21T08:31:07.558Z,1000.96
2016-03-21T08:32:07.578Z,1000.96
2016-03-21T08:33:07.580Z,1000.93
2016-03-21T08:34:07.599Z,1001.01
2016-03-21T08:35:07.617Z,1000.99
2016-03-21T08:36:07.636Z,1000.99
2016-03-21T08:37:07.638Z,1001.03
2016-03-21T08:38:07.656Z,1001.1
2016-03-21T08:39:07.675Z,1001.15
2016-03-21T08:40:07.677Z,1001.11
2016-03-21T08:41:07.696Z,1001.17
2016-03-21T08:42:07.713Z,1001.16
2016-03-21T08:43:07.732Z,1001.21
2016-03-21T08:44:07.735Z,1001.22
2016-03-21T08:45:07.753Z,1001.22
2016-03-21T08:46:07.772Z,1001.22
2016-03-21T08:47:07.806Z,1001.28
2016-03-21T08:48:07.793Z,1001.27
2016-03-21T08:49:07.826Z,1001.13
2016-03-21T08:50:07.829Z,1001.09
2016-03-21T08:51:07.848Z,1001.07
2016-03-21T08:52:07.865Z,1000.99
2016-03-21T08:53:07.884Z,1000.97
2016-03-21T08:54:07.887Z,1001
2016-03-21T08:55:07.905Z,1001.1
2016-03-21T08:56:07.924Z,1000.99
2016-03-21T08:57:07.942Z,1001.11
2016-03-21T08:58:07.945Z,1001.13
2016-03-21T08:59:07.963Z,1001.09
2016-03-21T09:00:07.981Z,1001.07
2016-03-21T09:01:07.984Z,1001.12
2016-03-21T09:02:08.002Z,1001.13
2016-03-21T09:03:08.020Z,1001.19
2016-03-21T09:04:08.038Z,1001.15
2016-03-21T09:05:08.057Z,1001.15
2016-03-21T09:06:08.075Z,1001.18
2016-03-21T09:07:08.094Z,1001.22
2016-03-21T09:08:08.097Z,1001.18
2016-03-21T09:09:08.115Z,1001.17
2016-03-21T09:10:08.133Z,1001.13
2016-03-21T09:11:08.136Z,1001.1
2016-03-21T09:12:08.154Z,1001.16
2016-03-21T09:13:08.171Z,1001.14
2016-03-21T09:14:08.191Z,1001.14
2016-03-21T09:15:08.200Z,1001.17
2016-03-21T09:16:08.203Z,1001.13
2016-03-21T09:17:08.221Z,1001.12
2016-03-21T09:18:08.240Z,1001.14
2016-03-21T09:19:08.258Z,1001.17
2016-03-21T09:20:08.275Z,1001.2
2016-03-21T09:21:08.310Z,1001.22
2016-03-21T09:22:08.297Z,1001.26
2016-03-21T09:23:08.315Z,1001.25
2016-03-21T09:24:08.334Z,1001.23
2016-03-21T09:25:08.336Z,1001.25
2016-03-21T09:26:08.371Z,1001.26
2016-03-21T09:27:08.373Z,1001.18
2016-03-21T09:28:08.391Z,1001.24
2016-03-21T09:29:08.410Z,1001.31
2016-03-21T09:30:08.427Z,1001.15
2016-03-21T09:31:08.430Z,1001.23
2016-03-21T09:32:08.449Z,1001.2
2016-03-21T09:33:08.467Z,1001.16
2016-03-21T09:34:08.486Z,1001.19
2016-03-21T09:35:08.488Z,1001.15
2016-03-21T09:36:08.507Z,1001.16
2016-03-21T09:37:08.525Z,1001.17
2016-03-21T09:38:08.528Z,1001.17
2016-03-21T09:39:08.546Z,1001.16
2016-03-21T09:40:08.564Z,1001.19
2016-03-21T09:41:08.582Z,1001.17
2016-03-21T09:42:08.600Z,1001.14
2016-03-21T09:43:08.619Z,1001.15
2016-03-21T09:44:08.622Z,1001.14
2016-03-21T09:45:08.640Z,1001.35
2016-03-21T09:46:08.659Z,1001.22
2016-03-21T09:47:08.677Z,1001.21
2016-03-21T09:48:08.695Z,1001.22
2016-03-21T09:49:08.714Z,1001.15
2016-03-21T09:50:08.716Z,1001.16
2016-03-21T09:51:08.734Z,1001.2
2016-03-21T09:52:08.753Z,1001.23
2016-03-21T09:53:08.756Z,1001.3
2016-03-21T09:54:08.774Z,1001.24
2016-03-21T09:55:08.792Z,1001.25
2016-03-21T09:56:08.810Z,1001.27
2016-03-21T09:57:08.813Z,1001.25
2016-03-21T09:58:08.846Z,1001.22
2016-03-21T09:59:08.850Z,1001.21
2016-03-21T10:00:08.868Z,1001.24
2016-03-21T10:01:08.870Z,1001.24
2016-03-21T10:02:08.888Z,1001.29
2016-03-21T10:03:08.907Z,1001.24
2016-03-21T10:04:08.926Z,1001.41
2016-03-21T10:05:08.928Z,1001.36
2016-03-21T10:06:08.947Z,1001.3
2016-03-21T10:07:08.966Z,1001.32
2016-03-21T10:08:08.984Z,1001.41
2016-03-21T10:09:08.988Z,1001.3
2016-03-21T10:10:09.005Z,1001.29
2016-03-21T10:11:09.024Z,1001.37
2016-03-21T10:12:09.041Z,1001.3
2016-03-21T10:13:09.060Z,1001.39
2016-03-21T10:14:09.078Z,1001.4
2016-03-21T10:15:09.081Z,1001.36
2016-03-21T10:16:09.131Z,1001.44
2016-03-21T10:17:09.134Z,1001.4
2016-03-21T10:18:09.182Z,1001.47
2016-03-21T10:19:09.185Z,1001.34
2016-03-21T10:20:09.157Z,1001.49
2016-03-21T10:21:09.207Z,1001.5
2016-03-21T10:22:09.178Z,1001.42
2016-03-21T10:23:09.196Z,1001.46
2016-03-21T10:24:09.215Z,1001.36
2016-03-21T10:25:09.218Z,1001.31
2016-03-21T10:26:09.236Z,1001.4
2016-03-21T10:27:09.254Z,1001.39
2016-03-21T10:28:09.272Z,1001.35
2016-03-21T10:29:09.275Z,1001.44
2016-03-21T10:30:09.293Z,1001.34
2016-03-21T10:31:09.311Z,1001.41
2016-03-21T10:32:09.330Z,1001.41
2016-03-21T10:33:09.347Z,1001.42
2016-03-21T10:34:09.367Z,1001.49
2016-03-21T10:35:09.385Z,1001.49
2016-03-21T10:36:09.388Z,1001.54
2016-03-21T10:37:09.406Z,1001.53
2016-03-21T10:38:09.424Z,1001.49
2016-03-21T10:39:09.427Z,1001.41
2016-03-21T10:40:09.461Z,1001.37
2016-03-21T10:41:09.464Z,1001.31
2016-03-21T10:42:09.482Z,1001.34
2016-03-21T10:43:09.499Z,1001.36
2016-03-21T10:44:09.502Z,1001.32
2016-03-21T10:45:09.521Z,1001.27
2016-03-21T10:46:09.540Z,1001.14
2016-03-21T10:47:09.558Z,1001.28
2016-03-21T10:48:09.576Z,1001.11
2016-03-21T10:49:09.579Z,1001.19
2016-03-21T10:50:09.597Z,1001.21
2016-03-21T10:51:09.616Z,1001.24
2016-03-21T10:52:09.634Z,1001.35
2016-03-21T10:53:09.651Z,1001.2
2016-03-21T10:54:09.654Z,1001.3
2016-03-21T10:55:09.673Z,1001.45
2016-03-21T10:56:09.691Z,1001.55
2016-03-21T10:57:09.710Z,1001.5
2016-03-21T10:58:09.712Z,1001.44
2016-03-21T10:59:09.731Z,1001.37
2016-03-21T11:00:09.749Z,1001.37
2016-03-21T11:01:09.752Z,1001.34
2016-03-21T11:02:09.770Z,1001.33
2016-03-21T11:03:09.788Z,1001.28
2016-03-21T11:04:09.806Z,1001.25
2016-03-21T11:05:09.825Z,1001.21
2016-03-21T11:06:09.843Z,1001.28
2016-03-21T11:07:09.853Z,1001.18
2016-03-21T11:08:09.872Z,1001.28
2016-03-21T11:09:09.875Z,1001.29
2016-03-21T11:10:09.894Z,1001.27
2016-03-21T11:11:09.912Z,1001.26
2016-03-21T11:12:09.914Z,1001.24
2016-03-21T11:13:09.933Z,1001.25
2016-03-21T11:14:09.951Z,1001.21
2016-03-21T11:15:09.969Z,1001.29
2016-03-21T11:16:09.988Z,1001.23
2016-03-21T11:17:09.990Z,1001.29
2016-03-21T11:18:10.007Z,1001.28
2016-03-21T11:19:10.027Z,1001.28
2016-03-21T11:20:10.045Z,1001.24
2016-03-21T11:21:10.048Z,1001.26
2016-03-21T11:22:10.066Z,1001.23
2016-03-21T11:23:10.084Z,1001.2
2016-03-21T11:24:10.103Z,1001.19
2016-03-21T11:25:10.121Z,1001.2
2016-03-21T11:26:10.124Z,1001.16
2016-03-21T11:27:10.142Z,1001.19
2016-03-21T11:28:10.159Z,1001.2
2016-03-21T11:29:10.179Z,1001.24
2016-03-21T11:30:10.197Z,1001.19
2016-03-21T11:31:10.400Z,1001.16
2016-03-21T11:32:10.216Z,1001.22
2016-03-21T11:33:10.235Z,1001.16
2016-03-21T11:34:10.249Z,1001.14
2016-03-21T11:35:11.901Z,1001.12
2016-03-21T11:36:10.265Z,1001.05
2016-03-21T11:37:10.298Z,1001.14
2016-03-21T11:38:10.301Z,1001.06
2016-03-21T11:39:10.318Z,1001.1
2016-03-21T11:40:10.337Z,1001.1
2016-03-21T11:41:10.355Z,1001.12
2016-03-21T11:42:10.359Z,1001.09
2016-03-21T11:43:10.376Z,1001.08
2016-03-21T11:44:10.395Z,1001.12
2016-03-21T11:45:10.413Z,1001.18
2016-03-21T11:46:10.416Z,1001.11
2016-03-21T11:47:10.434Z,1001.08
2016-03-21T11:48:10.452Z,1001.11
2016-03-21T11:49:10.470Z,1001.08
2016-03-21T11:50:10.489Z,1000.99
2016-03-21T11:51:10.507Z,1001.04
2016-03-21T11:52:10.525Z,1001.1
2016-03-21T11:53:10.528Z,1001.11
2016-03-21T11:54:10.546Z,1001.18
2016-03-21T11:55:10.565Z,1001.08
2016-03-21T11:56:10.583Z,1001.11
2016-03-21T11:57:10.602Z,1001.03
2016-03-21T11:58:10.619Z,1000.99
2016-03-21T11:59:10.622Z,1000.99
2016-03-21T12:00:10.641Z,1000.99
2016-03-21T12:01:10.659Z,1000.9
2016-03-21T12:02:10.678Z,1000.89
2016-03-21T12:03:10.696Z,1000.92
2016-03-21T12:04:10.698Z,1000.95
2016-03-21T12:05:10.732Z,1000.96
2016-03-21T12:06:10.735Z,1000.98
2016-03-21T12:07:10.757Z,1000.97
2016-03-21T12:08:10.776Z,1000.98
2016-03-21T12:09:10.778Z,1000.98
2016-03-21T12:10:10.797Z,1000.95
2016-03-21T12:11:10.815Z,1000.95